createdAt,value
2023-04-12T00:01:13.544Z,10.00
2023-04-12T00:03:41.333Z,10.07
2023-04-12T00:06:10.576Z,10.13
2023-04-12T00:11:05.790Z,9.30
2023-04-12T00:13:33.269Z,10.03
2023-04-12T00:16:00.753Z,8.67
2023-04-12T00:18:28.473Z,8.63
2023-04-12T00:20:56.024Z,8.97
2023-04-12T00:23:23.476Z,9.47
2023-04-12T00:25:51.343Z,10.30
2023-04-12T00:28:19.023Z,9.23
2023-04-12T00:30:46.478Z,9.90
2023-04-12T00:33:14.127Z,9.27
2023-04-12T00:35:41.523Z,9.97
2023-04-12T00:38:10.949Z,9.80
2023-04-12T00:40:44.924Z,9.57
2023-04-12T00:43:15.722Z,10.60
2023-04-12T00:45:44.568Z,9.47
2023-04-12T00:48:12.576Z,10.70
2023-04-12T00:50:45.043Z,10.47
2023-04-12T00:53:14.256Z,10.47
2023-04-12T00:55:44.929Z,8.82
2023-04-12T00:58:14.388Z,9.33
2023-04-12T01:00:42.305Z,9.90
2023-04-12T01:03:09.860Z,10.10
2023-04-12T01:05:50.695Z,10.93
2023-04-12T01:08:28.484Z,10.07
2023-04-12T01:11:06.417Z,10.38
2023-04-12T01:13:41.206Z,10.95
2023-04-12T01:16:26.769Z,10.13
2023-04-12T01:18:59.967Z,11.03
2023-04-12T01:21:39.662Z,10.97
2023-04-12T01:24:16.431Z,10.60
2023-04-12T01:26:47.092Z,11.20
2023-04-12T01:29:21.333Z,10.03
2023-04-12T01:31:56.861Z,11.20
2023-04-12T01:34:27.526Z,11.60
2023-04-12T01:36:57.338Z,10.80
2023-04-12T01:39:24.717Z,10.70
2023-04-12T01:41:52.139Z,10.30
2023-04-12T01:44:19.990Z,11.27
2023-04-12T01:46:48.749Z,10.60
2023-04-12T01:49:17.915Z,12.57
2023-04-12T01:51:58.553Z,10.27
2023-04-12T01:54:33.327Z,11.40
2023-04-12T01:57:03.926Z,11.97
2023-04-12T01:59:45.688Z,10.50
2023-04-12T02:02:13.979Z,11.60
2023-04-12T02:04:43.186Z,10.55
2023-04-12T02:07:11.620Z,12.05
2023-04-12T02:09:39.756Z,11.55
2023-04-12T02:12:08.180Z,11.75
2023-04-12T02:14:37.098Z,11.17
2023-04-12T02:17:05.584Z,9.73
2023-04-12T02:19:33.183Z,13.38
2023-04-12T02:22:01.275Z,12.43
2023-04-12T02:24:29.921Z,12.05
2023-04-12T02:26:59.268Z,12.77
2023-04-12T02:29:27.685Z,11.57
2023-04-12T02:31:55.261Z,13.20
2023-04-12T02:34:23.179Z,13.00
2023-04-12T02:36:51.335Z,12.40
2023-04-12T02:39:18.942Z,12.73
2023-04-12T02:41:46.912Z,12.00
2023-04-12T02:44:15.221Z,11.87
2023-04-12T02:46:44.007Z,11.05
2023-04-12T02:49:11.829Z,12.43
2023-04-12T02:51:40.543Z,12.57
2023-04-12T02:54:08.046Z,13.30
2023-04-12T02:56:37.164Z,12.50
2023-04-12T02:59:07.007Z,15.27
2023-04-12T03:01:35.062Z,18.33
2023-04-12T03:04:03.690Z,12.60
2023-04-12T03:06:32.213Z,12.60
2023-04-12T03:09:00.570Z,12.80
2023-04-12T03:11:27.856Z,12.20
2023-04-12T03:13:56.229Z,10.90
2023-04-12T03:16:30.173Z,13.27
2023-04-12T03:18:59.930Z,14.17
2023-04-12T03:21:28.501Z,13.82
2023-04-12T03:23:56.551Z,13.33
2023-04-12T03:26:26.742Z,15.52
2023-04-12T03:29:01.529Z,14.90
2023-04-12T03:31:31.593Z,14.23
2023-04-12T03:34:02.305Z,14.40
2023-04-12T03:36:31.433Z,12.93
2023-04-12T03:38:59.690Z,14.55
2023-04-12T03:41:28.733Z,14.80
2023-04-12T03:43:57.184Z,15.10
2023-04-12T03:46:25.108Z,14.83
2023-04-12T03:48:53.077Z,14.13
2023-04-12T03:51:22.443Z,14.50
2023-04-12T03:53:49.874Z,17.45
2023-04-12T03:56:17.206Z,14.83
2023-04-12T03:58:45.136Z,14.97
2023-04-12T04:01:13.919Z,16.07
2023-04-12T04:03:42.602Z,15.33
2023-04-12T04:08:39.675Z,15.37
2023-04-12T04:11:09.014Z,14.50
2023-04-12T04:13:37.273Z,17.30
2023-04-12T04:16:07.772Z,16.30
2023-04-12T04:18:36.371Z,14.47
2023-04-12T04:21:05.219Z,15.98
2023-04-12T04:23:38.852Z,16.25
2023-04-12T04:26:11.365Z,15.63
2023-04-12T04:28:45.403Z,12.97
2023-04-12T04:31:17.053Z,14.10
2023-04-12T04:33:47.435Z,15.57
2023-04-12T04:36:36.099Z,16.10
2023-04-12T04:39:08.225Z,14.80
2023-04-12T04:41:39.742Z,15.60
2023-04-12T04:44:09.700Z,14.47
2023-04-12T04:46:38.274Z,15.47
2023-04-12T04:49:06.592Z,15.77
2023-04-12T04:51:33.955Z,15.73
2023-04-12T04:54:03.584Z,14.73
2023-04-12T04:56:32.951Z,16.00
2023-04-12T04:59:02.828Z,14.40
2023-04-12T05:01:32.266Z,12.50
2023-04-12T05:04:01.838Z,11.87
2023-04-12T05:06:29.839Z,11.95
2023-04-12T05:08:58.463Z,11.57
2023-04-12T05:11:26.722Z,10.43
2023-04-12T05:13:54.710Z,9.67
2023-04-12T05:16:22.552Z,10.07
2023-04-12T05:18:49.951Z,9.77
2023-04-12T05:21:18.967Z,8.90
2023-04-12T05:23:47.614Z,9.60
2023-04-12T05:26:14.987Z,9.85
2023-04-12T05:28:43.137Z,9.97
2023-04-12T05:31:14.791Z,8.67
2023-04-12T05:33:42.570Z,10.27
2023-04-12T05:36:11.062Z,8.90
2023-04-12T05:38:39.207Z,8.60
2023-04-12T05:41:08.339Z,7.97
2023-04-12T05:43:37.959Z,7.23
2023-04-12T05:46:08.187Z,7.40
2023-04-12T05:48:36.000Z,7.50
2023-04-12T05:51:05.385Z,8.30
2023-04-12T05:53:34.752Z,7.37
2023-04-12T05:56:03.285Z,8.57
2023-04-12T05:58:30.876Z,7.33
2023-04-12T06:00:59.271Z,7.05
2023-04-12T06:03:30.529Z,6.67
2023-04-12T06:05:58.254Z,7.57
2023-04-12T06:08:25.706Z,7.03
2023-04-12T06:10:53.390Z,5.63
2023-04-12T06:13:21.591Z,6.23
2023-04-12T06:15:49.300Z,6.07
2023-04-12T06:18:17.263Z,6.18
2023-04-12T06:20:46.543Z,10.20
2023-04-12T06:23:14.157Z,8.20
2023-04-12T06:25:42.128Z,8.10
2023-04-12T06:28:10.147Z,11.53
2023-04-12T06:30:41.121Z,4.63
2023-04-12T06:33:09.290Z,4.18
2023-04-12T06:35:36.710Z,6.00
2023-04-12T06:38:04.143Z,7.10
2023-04-12T06:40:32.571Z,5.50
2023-04-12T06:43:00.592Z,6.53
2023-04-12T06:45:28.392Z,7.40
2023-04-12T06:47:57.280Z,6.00
2023-04-12T06:50:26.769Z,6.85
2023-04-12T06:55:22.072Z,4.27
2023-04-12T06:57:52.248Z,5.37
2023-04-12T07:00:19.811Z,5.10
2023-04-12T07:02:47.579Z,5.63
2023-04-12T07:05:15.132Z,6.60
2023-04-12T07:07:42.460Z,7.47
2023-04-12T07:10:10.886Z,5.53
2023-04-12T07:12:38.282Z,6.53
2023-04-12T07:15:06.108Z,5.43
2023-04-12T07:17:34.037Z,7.00
2023-04-12T07:20:01.667Z,5.47
2023-04-12T07:22:30.640Z,4.85
2023-04-12T07:24:58.238Z,5.30
2023-04-12T07:27:25.463Z,5.50
2023-04-12T07:29:56.227Z,3.13
2023-04-12T07:32:25.150Z,4.30
2023-04-12T07:34:53.454Z,8.05
2023-04-12T07:37:21.308Z,4.70
2023-04-12T07:39:49.119Z,4.47
2023-04-12T07:42:16.977Z,5.23
2023-04-12T07:44:44.362Z,5.13
2023-04-12T07:47:15.853Z,4.00
2023-04-12T07:49:43.273Z,5.30
2023-04-12T07:52:11.947Z,5.40
2023-04-12T07:57:09.106Z,4.43
2023-04-12T07:59:36.872Z,3.95
2023-04-12T08:02:06.390Z,3.93
2023-04-12T08:04:34.190Z,4.23
2023-04-12T08:07:01.678Z,4.03
2023-04-12T08:09:29.030Z,5.03
2023-04-12T08:11:58.404Z,5.47
2023-04-12T08:14:26.512Z,3.28
2023-04-12T08:16:53.851Z,4.00
2023-04-12T08:19:22.531Z,3.00
2023-04-12T08:21:50.345Z,4.03
2023-04-12T08:24:18.559Z,3.57
2023-04-12T08:26:46.968Z,3.55
2023-04-12T08:29:14.888Z,4.20
2023-04-12T08:31:42.596Z,3.70
2023-04-12T08:34:10.324Z,3.47
2023-04-12T08:36:38.686Z,3.63
2023-04-12T08:39:06.271Z,3.10
2023-04-12T08:41:37.031Z,2.97
2023-04-12T08:44:06.155Z,2.70
2023-04-12T08:46:37.651Z,2.62
2023-04-12T08:49:05.983Z,2.40
2023-04-12T08:51:37.238Z,2.47
2023-04-12T08:54:05.554Z,2.70
2023-04-12T08:56:33.545Z,3.28
2023-04-12T08:59:02.705Z,2.15
2023-04-12T09:01:30.655Z,1.73
2023-04-12T09:03:59.147Z,2.70
2023-04-12T09:06:27.608Z,2.13
2023-04-12T09:08:57.294Z,1.73
2023-04-12T09:11:26.945Z,2.60
2023-04-12T09:13:58.991Z,2.37
2023-04-12T09:16:40.588Z,1.80
2023-04-12T09:19:09.718Z,2.63
2023-04-12T09:21:51.631Z,2.17
2023-04-12T09:24:19.748Z,1.33
2023-04-12T09:26:47.561Z,2.10
2023-04-12T09:29:28.399Z,2.20
2023-04-12T09:32:10.189Z,1.90
2023-04-12T09:34:37.927Z,2.03
2023-04-12T09:37:24.534Z,1.80
2023-04-12T09:40:06.946Z,2.00
2023-04-12T09:42:37.132Z,1.70
2023-04-12T09:45:20.506Z,1.70
2023-04-12T09:47:49.806Z,1.60
2023-04-12T09:50:25.267Z,2.30
2023-04-12T09:52:54.340Z,1.90
2023-04-12T09:55:24.960Z,2.83
2023-04-12T09:57:54.586Z,5.50
2023-04-12T10:00:27.525Z,1.50
2023-04-12T10:02:57.532Z,1.70
2023-04-12T10:05:28.147Z,2.27
2023-04-12T10:07:58.803Z,2.43
2023-04-12T10:10:29.769Z,1.67
2023-04-12T10:12:58.710Z,1.87
2023-04-12T10:15:27.861Z,1.80
2023-04-12T10:17:57.700Z,1.70
2023-04-12T10:20:29.261Z,1.70
2023-04-12T10:23:01.965Z,1.70
2023-04-12T10:25:31.291Z,1.83
2023-04-12T10:28:22.262Z,1.60
2023-04-12T10:30:53.478Z,2.10
2023-04-12T10:33:26.904Z,1.47
2023-04-12T10:36:08.806Z,1.50
2023-04-12T10:39:10.283Z,2.37
2023-04-12T10:41:38.192Z,1.40
2023-04-12T10:44:29.115Z,0.93
2023-04-12T10:46:56.880Z,1.20
2023-04-12T10:49:25.366Z,1.60
2023-04-12T10:52:02.748Z,1.23
2023-04-12T10:54:37.376Z,1.07
2023-04-12T10:57:05.718Z,1.57
2023-04-12T10:59:57.613Z,1.77
2023-04-12T11:02:25.600Z,1.63
2023-04-12T11:05:11.804Z,1.20
2023-04-12T11:07:46.326Z,2.53
2023-04-12T11:10:21.986Z,2.00
2023-04-12T11:12:57.541Z,2.60
2023-04-12T11:15:30.691Z,1.73
2023-04-12T11:18:01.379Z,2.17
2023-04-12T11:20:30.504Z,1.20
2023-04-12T11:23:01.255Z,1.30
2023-04-12T11:27:57.593Z,1.27
2023-04-12T11:30:26.395Z,1.70
2023-04-12T11:32:55.680Z,2.35
2023-04-12T11:35:27.898Z,1.07
2023-04-12T11:37:59.281Z,2.03
2023-04-12T11:40:27.780Z,1.87
2023-04-12T11:42:57.905Z,1.00
2023-04-12T11:45:27.064Z,1.27
2023-04-12T11:47:58.363Z,1.43
2023-04-12T11:50:31.312Z,1.17
2023-04-12T11:53:13.461Z,2.50
2023-04-12T11:55:41.739Z,1.93
2023-04-12T11:58:09.015Z,1.83
2023-04-12T12:00:37.000Z,1.40
2023-04-12T12:03:08.252Z,1.87
2023-04-12T12:05:41.465Z,1.93
2023-04-12T12:08:09.781Z,1.00
2023-04-12T12:10:51.915Z,2.20
2023-04-12T12:13:23.540Z,1.43
2023-04-12T12:15:54.099Z,1.00
2023-04-12T12:18:26.662Z,1.47
2023-04-12T12:20:55.949Z,1.10
2023-04-12T12:23:33.560Z,1.10
2023-04-12T12:26:17.789Z,1.00
2023-04-12T12:28:51.019Z,1.60
2023-04-12T12:31:21.574Z,1.40
2023-04-12T12:33:49.865Z,1.03
2023-04-12T12:36:23.036Z,1.30
2023-04-12T12:38:53.451Z,1.90
2023-04-12T12:41:25.207Z,10.07
2023-04-12T12:43:53.249Z,1.20
2023-04-12T12:46:21.190Z,1.10
2023-04-12T12:48:49.025Z,1.03
2023-04-12T12:51:20.471Z,1.60
2023-04-12T12:53:48.530Z,1.10
2023-04-12T12:56:16.182Z,1.93
2023-04-12T12:58:43.996Z,1.50
2023-04-12T13:01:11.496Z,1.37
2023-04-12T13:03:39.074Z,1.40
2023-04-12T13:06:07.748Z,1.10
2023-04-12T13:08:37.314Z,1.27
2023-04-12T13:11:05.808Z,3.03
2023-04-12T13:13:33.505Z,1.60
2023-04-12T13:16:00.987Z,1.50
2023-04-12T13:18:28.378Z,2.30
2023-04-12T13:20:56.851Z,1.20
2023-04-12T13:23:24.189Z,2.70
2023-04-12T13:25:51.563Z,1.70
2023-04-12T13:28:19.640Z,1.70
2023-04-12T13:30:48.901Z,2.00
2023-04-12T13:33:20.124Z,1.27
2023-04-12T13:35:49.649Z,0.93
2023-04-12T13:38:17.122Z,1.70
2023-04-12T13:40:44.474Z,1.53
2023-04-12T13:43:12.093Z,3.03
2023-04-12T13:45:39.478Z,2.37
2023-04-12T13:48:06.892Z,1.80
2023-04-12T13:50:34.629Z,1.00
2023-04-12T13:53:01.944Z,1.00
2023-04-12T13:55:29.282Z,1.70
2023-04-12T13:57:56.887Z,1.70
2023-04-12T14:00:24.251Z,1.70
2023-04-12T14:02:52.141Z,1.80
2023-04-12T14:05:19.915Z,1.27
2023-04-12T14:07:50.011Z,1.23
2023-04-12T14:10:17.704Z,1.60
2023-04-12T14:12:47.589Z,1.10
2023-04-12T14:15:14.967Z,2.00
2023-04-12T14:17:42.897Z,1.90
2023-04-12T14:20:13.570Z,1.73
2023-04-12T14:22:41.036Z,2.43
2023-04-12T14:25:10.387Z,1.30
2023-04-12T14:30:07.419Z,1.30
2023-04-12T14:32:35.226Z,2.20
2023-04-12T14:35:04.386Z,4.10
2023-04-12T14:37:33.286Z,1.97
2023-04-12T14:40:01.289Z,1.60
2023-04-12T14:42:28.648Z,1.77
2023-04-12T14:44:55.998Z,1.60
2023-04-12T14:47:23.763Z,1.37
2023-04-12T14:49:51.357Z,1.73
2023-04-12T14:52:19.052Z,2.53
2023-04-12T14:54:46.971Z,2.83
2023-04-12T14:57:15.102Z,5.12
2023-04-12T14:59:42.542Z,1.90
2023-04-12T15:02:13.234Z,1.62
2023-04-12T15:04:41.154Z,1.48
2023-04-12T15:07:08.548Z,1.60
2023-04-12T15:09:36.323Z,1.40
2023-04-12T15:12:03.838Z,1.90
2023-04-12T15:14:31.642Z,1.98
2023-04-12T15:16:59.342Z,1.83
2023-04-12T15:19:27.394Z,1.50
2023-04-12T15:21:55.502Z,1.70
2023-04-12T15:24:24.571Z,2.70
2023-04-12T15:26:53.210Z,3.28
2023-04-12T15:29:22.812Z,10.55
2023-04-12T15:31:51.015Z,4.45
2023-04-12T15:34:18.598Z,4.22
2023-04-12T15:36:46.204Z,5.10
2023-04-12T15:39:15.192Z,6.35
2023-04-12T15:41:43.573Z,3.30
2023-04-12T15:44:14.880Z,6.30
2023-04-12T15:46:42.923Z,3.35
2023-04-12T15:49:11.262Z,2.15
2023-04-12T15:51:38.889Z,2.70
2023-04-12T15:54:06.871Z,1.70
2023-04-12T15:56:35.276Z,1.87
2023-04-12T15:59:03.154Z,3.00
2023-04-12T16:01:30.938Z,3.87
2023-04-12T16:03:58.923Z,3.33
2023-04-12T16:06:27.392Z,5.27
2023-04-12T16:08:55.395Z,7.10
2023-04-12T16:11:24.207Z,4.78
2023-04-12T16:13:52.601Z,3.17
2023-04-12T16:16:23.000Z,3.33
2023-04-12T16:18:51.717Z,4.05
2023-04-12T16:21:20.922Z,2.28
2023-04-12T16:23:50.598Z,2.13
2023-04-12T16:26:22.087Z,4.33
2023-04-12T16:28:55.645Z,2.80
2023-04-12T16:31:25.622Z,1.30
2023-04-12T16:33:54.247Z,2.10
2023-04-12T16:36:24.296Z,3.50
2023-04-12T16:38:55.273Z,33.40
2023-04-12T16:41:23.333Z,19.67
2023-04-12T16:43:53.922Z,8.90
2023-04-12T16:46:21.831Z,6.10
2023-04-12T16:48:49.430Z,7.00
2023-04-12T16:51:17.232Z,6.17
2023-04-12T16:53:44.932Z,7.03
2023-04-12T16:56:12.732Z,1.90
2023-04-12T16:58:41.074Z,2.60
2023-04-12T17:01:09.958Z,4.87
2023-04-12T17:03:41.988Z,4.00
2023-04-12T17:06:10.310Z,2.87
2023-04-12T17:08:38.116Z,4.53
2023-04-12T17:11:06.265Z,3.00
2023-04-12T17:13:34.816Z,2.45
2023-04-12T17:16:04.208Z,3.40
2023-04-12T17:18:32.112Z,3.27
2023-04-12T17:21:00.893Z,1.98
2023-04-12T17:23:28.733Z,2.83
2023-04-12T17:25:57.018Z,3.73
2023-04-12T17:28:25.208Z,3.65
2023-04-12T17:30:53.828Z,3.60
2023-04-12T17:33:21.587Z,2.92
2023-04-12T17:35:49.554Z,22.50
2023-04-12T17:38:16.904Z,9.00
2023-04-12T17:40:44.205Z,5.13
2023-04-12T17:43:12.332Z,3.37
2023-04-12T17:45:40.293Z,6.93
2023-04-12T17:48:11.216Z,4.03
2023-04-12T17:50:38.981Z,8.43
2023-04-12T17:53:06.267Z,6.40
2023-04-12T17:55:33.959Z,9.03
2023-04-12T17:58:05.787Z,7.47
2023-04-12T18:00:33.685Z,3.50
2023-04-12T18:03:01.520Z,4.87
2023-04-12T18:05:29.094Z,5.57
2023-04-12T18:07:57.227Z,7.13
2023-04-12T18:10:27.434Z,13.30
2023-04-12T18:12:55.349Z,41.83
2023-04-12T18:15:22.854Z,26.50
2023-04-12T18:17:50.716Z,24.50
2023-04-12T18:20:18.509Z,16.83
2023-04-12T18:22:46.141Z,19.33
2023-04-12T18:25:13.920Z,24.13
2023-04-12T18:27:41.523Z,23.67
2023-04-12T18:30:09.598Z,30.27
2023-04-12T18:32:37.641Z,34.63
2023-04-12T18:35:06.273Z,28.23
2023-04-12T18:37:33.925Z,28.10
2023-04-12T18:40:01.757Z,25.60
2023-04-12T18:42:29.293Z,12.17
2023-04-12T18:44:58.365Z,9.97
2023-04-12T18:47:29.214Z,9.70
2023-04-12T18:49:56.651Z,8.50
2023-04-12T18:52:24.051Z,21.17
2023-04-12T18:54:51.907Z,16.70
2023-04-12T18:57:19.466Z,16.80
2023-04-12T18:59:48.086Z,41.93
2023-04-12T19:02:16.025Z,29.35
2023-04-12T19:04:43.460Z,44.50
2023-04-12T19:07:11.020Z,45.87
2023-04-12T19:09:38.793Z,18.63
2023-04-12T19:12:06.332Z,30.83
2023-04-12T19:14:33.770Z,8.17
2023-04-12T19:17:01.476Z,2.50
2023-04-12T19:19:29.033Z,6.47
2023-04-12T19:21:56.467Z,5.00
2023-04-12T19:24:24.688Z,3.07
2023-04-12T19:26:51.989Z,2.07
2023-04-12T19:29:20.000Z,1.60
2023-04-12T19:31:49.247Z,3.45
2023-04-12T19:34:18.088Z,2.42
2023-04-12T19:36:46.011Z,38.53
2023-04-12T19:39:13.676Z,23.57
2023-04-12T19:41:41.175Z,20.70
2023-04-12T19:44:08.653Z,14.43
2023-04-12T19:46:39.041Z,15.90
2023-04-12T19:49:06.506Z,11.53
2023-04-12T19:51:34.843Z,11.70
2023-04-12T19:54:03.115Z,14.45
2023-04-12T19:56:31.727Z,13.43
2023-04-12T19:59:00.389Z,12.75
2023-04-12T20:01:28.495Z,11.45
2023-04-12T20:03:56.282Z,14.93
2023-04-12T20:06:23.712Z,17.50
2023-04-12T20:08:51.421Z,23.13
2023-04-12T20:11:19.208Z,23.07
2023-04-12T20:13:46.764Z,19.67
2023-04-12T20:16:14.251Z,19.63
2023-04-12T20:18:42.247Z,17.63
2023-04-12T20:21:10.500Z,16.13
2023-04-12T20:23:38.086Z,17.05
2023-04-12T20:26:05.801Z,20.53
2023-04-12T20:28:33.243Z,17.97
2023-04-12T20:31:00.970Z,14.03
2023-04-12T20:33:29.548Z,8.83
2023-04-12T20:35:56.923Z,5.93
2023-04-12T20:38:24.365Z,4.40
2023-04-12T20:40:52.468Z,4.60
2023-04-12T20:43:19.904Z,4.70
2023-04-12T20:45:48.470Z,4.93
2023-04-12T20:48:16.885Z,4.75
2023-04-12T20:50:45.045Z,5.87
2023-04-12T20:53:17.727Z,7.33
2023-04-12T20:55:45.914Z,10.73
2023-04-12T20:58:13.337Z,15.53
2023-04-12T21:00:40.921Z,16.70
2023-04-12T21:03:08.853Z,10.73
2023-04-12T21:05:36.280Z,20.10
2023-04-12T21:08:03.617Z,22.13
2023-04-12T21:10:31.411Z,40.33
2023-04-12T21:13:02.061Z,41.53
2023-04-12T21:15:30.332Z,34.33
2023-04-12T21:17:58.034Z,36.33
2023-04-12T21:20:25.626Z,23.37
2023-04-12T21:22:53.707Z,18.17
2023-04-12T21:25:21.661Z,13.13
2023-04-12T21:27:49.951Z,16.37
2023-04-12T21:30:17.505Z,12.70
2023-04-12T21:32:45.212Z,13.73
2023-04-12T21:35:16.471Z,13.87
2023-04-12T21:37:44.138Z,16.97
2023-04-12T21:40:12.828Z,17.07
2023-04-12T21:42:41.366Z,20.60
2023-04-12T21:45:13.811Z,18.75
2023-04-12T21:47:42.627Z,16.03
2023-04-12T21:50:10.903Z,14.90
2023-04-12T21:52:40.285Z,13.82
2023-04-12T21:55:08.375Z,12.17
2023-04-12T21:57:36.082Z,13.37
2023-04-12T22:00:06.507Z,12.27
2023-04-12T22:02:39.259Z,9.70
2023-04-12T22:05:07.767Z,9.20
2023-04-12T22:07:35.439Z,9.20
2023-04-12T22:10:02.783Z,10.80
2023-04-12T22:12:30.523Z,12.97
2023-04-12T22:14:58.682Z,15.90
2023-04-12T22:17:26.485Z,18.70
2023-04-12T22:19:56.783Z,20.03
2023-04-12T22:22:25.238Z,15.93
2023-04-12T22:24:53.995Z,12.30
2023-04-12T22:27:21.570Z,10.43
2023-04-12T22:29:50.174Z,9.87
2023-04-12T22:32:17.570Z,9.90
2023-04-12T22:34:45.838Z,8.40
2023-04-12T22:37:14.920Z,13.18
2023-04-12T22:39:42.976Z,11.47
2023-04-12T22:42:10.919Z,15.50
2023-04-12T22:44:38.590Z,13.00
2023-04-12T22:47:09.002Z,11.07
2023-04-12T22:49:46.560Z,10.77
2023-04-12T22:52:13.895Z,10.67
2023-04-12T22:54:41.508Z,12.00
2023-04-12T22:57:08.863Z,11.53
2023-04-12T22:59:36.325Z,11.30
2023-04-12T23:02:04.197Z,14.57
2023-04-12T23:04:31.634Z,9.57
2023-04-12T23:06:59.018Z,8.40
2023-04-12T23:09:27.449Z,6.60
2023-04-12T23:11:54.894Z,7.37
2023-04-12T23:14:22.892Z,5.90
2023-04-12T23:16:51.831Z,6.43
2023-04-12T23:19:19.148Z,11.05
2023-04-12T23:21:46.517Z,6.40
2023-04-12T23:24:16.631Z,5.67
2023-04-12T23:26:47.425Z,7.50
2023-04-12T23:29:15.349Z,4.87
2023-04-12T23:31:42.759Z,5.80
2023-04-12T23:34:10.076Z,5.17
2023-04-12T23:36:37.743Z,12.17
2023-04-12T23:39:08.786Z,9.00
2023-04-12T23:41:36.336Z,5.47
2023-04-12T23:44:04.016Z,4.13
2023-04-12T23:46:31.472Z,3.17
2023-04-12T23:48:58.836Z,4.30
2023-04-12T23:51:27.409Z,4.90
2023-04-12T23:53:54.702Z,6.90
2023-04-12T23:56:22.172Z,6.03
2023-04-12T23:58:50.003Z,5.30
